sensor_id;sensor_type;location;lat;lon;timestamp;pressure;altitude;pressure_sealevel;temperature
31921;BMP280;66485;52.128;4.436;2023-05-19T00:00:01;102913.03;;;20.94
31921;BMP280;66485;52.128;4.436;2023-05-19T00:02:27;102907.16;;;20.92
31921;BMP280;66485;52.128;4.436;2023-05-19T00:04:59;102902.91;;;20.94
31921;BMP280;66485;52.128;4.436;2023-05-19T00:07:30;102902.91;;;20.94
31921;BMP280;66485;52.128;4.436;2023-05-19T00:09:55;102892.78;;;20.91
31921;BMP280;66485;52.128;4.436;2023-05-19T00:12:22;102892.78;;;20.91
31921;BMP280;66485;52.128;4.436;2023-05-19T00:14:47;102893.13;;;20.89
31921;BMP280;66485;52.128;4.436;2023-05-19T00:17:13;102889.63;;;20.85
31921;BMP280;66485;52.128;4.436;2023-05-19T00:19:41;102889.63;;;20.85
31921;BMP280;66485;52.128;4.436;2023-05-19T00:22:09;102889.63;;;20.89
31921;BMP280;66485;52.128;4.436;2023-05-19T00:24:34;102892.34;;;20.85
31921;BMP280;66485;52.128;4.436;2023-05-19T00:27:00;102892.34;;;20.85
31921;BMP280;66485;52.128;4.436;2023-05-19T00:29:25;102892.78;;;20.91
31921;BMP280;66485;52.128;4.436;2023-05-19T00:31:50;102897.03;;;20.88
31921;BMP280;66485;52.128;4.436;2023-05-19T00:34:17;102897.78;;;20.82
31921;BMP280;66485;52.128;4.436;2023-05-19T00:36:42;102904.41;;;20.81
31921;BMP280;66485;52.128;4.436;2023-05-19T00:39:07;102897.34;;;20.76
31921;BMP280;66485;52.128;4.436;2023-05-19T00:41:33;102897.34;;;20.76
31921;BMP280;66485;52.128;4.436;2023-05-19T00:43:58;102893.06;;;20.72
31921;BMP280;66485;52.128;4.436;2023-05-19T00:46:23;102897.69;;;20.68
31921;BMP280;66485;52.128;4.436;2023-05-19T00:48:49;102897.69;;;20.68
31921;BMP280;66485;52.128;4.436;2023-05-19T00:51:15;102899.63;;;20.67
31921;BMP280;66485;52.128;4.436;2023-05-19T00:53:41;102901.97;;;20.65
31921;BMP280;66485;52.128;4.436;2023-05-19T00:56:08;102901.97;;;20.65
31921;BMP280;66485;52.128;4.436;2023-05-19T00:58:34;102891.47;;;20.64
31921;BMP280;66485;52.128;4.436;2023-05-19T01:01:00;102891.47;;;20.64
31921;BMP280;66485;52.128;4.436;2023-05-19T01:03:29;102890.69;;;20.63
31921;BMP280;66485;52.128;4.436;2023-05-19T01:05:55;102890.69;;;20.63
31921;BMP280;66485;52.128;4.436;2023-05-19T01:08:20;102887.56;;;20.61
31921;BMP280;66485;52.128;4.436;2023-05-19T01:10:46;102886.00;;;20.64
31921;BMP280;66485;52.128;4.436;2023-05-19T01:13:11;102882.50;;;20.60
31921;BMP280;66485;52.128;4.436;2023-05-19T01:16:04;102884.84;;;20.61
31921;BMP280;66485;52.128;4.436;2023-05-19T01:18:34;102874.75;;;20.62
31921;BMP280;66485;52.128;4.436;2023-05-19T01:26:58;102875.13;;;20.64
31921;BMP280;66485;52.128;4.436;2023-05-19T01:30:12;102872.41;;;20.64
31921;BMP280;66485;52.128;4.436;2023-05-19T01:32:41;102876.28;;;20.59
31921;BMP280;66485;52.128;4.436;2023-05-19T01:35:08;102876.28;;;20.59
31921;BMP280;66485;52.128;4.436;2023-05-19T01:37:33;102863.44;;;20.67
31921;BMP280;66485;52.128;4.436;2023-05-19T01:40:00;102865.41;;;20.66
31921;BMP280;66485;52.128;4.436;2023-05-19T01:42:26;102865.41;;;20.66
31921;BMP280;66485;52.128;4.436;2023-05-19T01:44:51;102867.69;;;20.57
31921;BMP280;66485;52.128;4.436;2023-05-19T01:47:18;102867.69;;;20.57
31921;BMP280;66485;52.128;4.436;2023-05-19T01:49:43;102866.16;;;20.63
31921;BMP280;66485;52.128;4.436;2023-05-19T01:52:08;102869.28;;;20.58
31921;BMP280;66485;52.128;4.436;2023-05-19T01:54:34;102869.28;;;20.58
31921;BMP280;66485;52.128;4.436;2023-05-19T01:57:11;102863.44;;;20.60
31921;BMP280;66485;52.128;4.436;2023-05-19T02:05:47;102866.94;;;20.60
31921;BMP280;66485;52.128;4.436;2023-05-19T02:08:23;102854.47;;;20.59
31921;BMP280;66485;52.128;4.436;2023-05-19T02:10:57;102854.47;;;20.59
31921;BMP280;66485;52.128;4.436;2023-05-19T02:13:28;102862.22;;;20.50
31921;BMP280;66485;52.128;4.436;2023-05-19T02:16:03;102859.53;;;20.57
31921;BMP280;66485;52.128;4.436;2023-05-19T02:18:38;102866.94;;;20.60
31921;BMP280;66485;52.128;4.436;2023-05-19T02:21:04;102851.34;;;20.54
31921;BMP280;66485;52.128;4.436;2023-05-19T02:23:29;102851.38;;;20.61
31921;BMP280;66485;52.128;4.436;2023-05-19T02:25:55;102851.38;;;20.61
31921;BMP280;66485;52.128;4.436;2023-05-19T02:28:20;102854.47;;;20.59
31921;BMP280;66485;52.128;4.436;2023-05-19T02:30:45;102856.03;;;20.57
31921;BMP280;66485;52.128;4.436;2023-05-19T02:33:11;102856.03;;;20.57
31921;BMP280;66485;52.128;4.436;2023-05-19T02:35:36;102853.69;;;20.59
31921;BMP280;66485;52.128;4.436;2023-05-19T02:38:01;102853.69;;;20.59
31921;BMP280;66485;52.128;4.436;2023-05-19T02:40:27;102850.16;;;20.47
31921;BMP280;66485;52.128;4.436;2023-05-19T02:42:52;102842.41;;;20.57
31921;BMP280;66485;52.128;4.436;2023-05-19T02:45:17;102842.41;;;20.57
31921;BMP280;66485;52.128;4.436;2023-05-19T02:47:43;102850.59;;;20.64
31921;BMP280;66485;52.128;4.436;2023-05-19T02:50:08;102850.59;;;20.64
31921;BMP280;66485;52.128;4.436;2023-05-19T02:52:34;102835.06;;;20.64
31921;BMP280;66485;52.128;4.436;2023-05-19T02:54:59;102839.72;;;20.64
31921;BMP280;66485;52.128;4.436;2023-05-19T02:57:24;102837.38;;;20.59
31921;BMP280;66485;52.128;4.436;2023-05-19T02:59:50;102837.38;;;20.59
31921;BMP280;66485;52.128;4.436;2023-05-19T03:02:16;102841.22;;;20.54
31921;BMP280;66485;52.128;4.436;2023-05-19T03:04:41;102840.47;;;20.57
31921;BMP280;66485;52.128;4.436;2023-05-19T03:07:08;102840.47;;;20.57
31921;BMP280;66485;52.128;4.436;2023-05-19T03:09:40;102832.72;;;20.63
31921;BMP280;66485;52.128;4.436;2023-05-19T03:12:06;102832.72;;;20.63
31921;BMP280;66485;52.128;4.436;2023-05-19T03:14:32;102835.44;;;20.63
31921;BMP280;66485;52.128;4.436;2023-05-19T03:16:58;102827.25;;;20.59
31921;BMP280;66485;52.128;4.436;2023-05-19T03:19:25;102819.09;;;20.59
31921;BMP280;66485;52.128;4.436;2023-05-19T03:21:51;102826.09;;;20.60
31921;BMP280;66485;52.128;4.436;2023-05-19T03:24:17;102826.09;;;20.60
31921;BMP280;66485;52.128;4.436;2023-05-19T03:26:42;102827.66;;;20.58
31921;BMP280;66485;52.128;4.436;2023-05-19T03:29:07;102824.13;;;20.57
31921;BMP280;66485;52.128;4.436;2023-05-19T03:31:33;102823.00;;;20.62
31921;BMP280;66485;52.128;4.436;2023-05-19T03:33:58;102827.66;;;20.58
31921;BMP280;66485;52.128;4.436;2023-05-19T03:36:23;102828.81;;;20.60
31921;BMP280;66485;52.128;4.436;2023-05-19T03:38:49;102823.38;;;20.60
31921;BMP280;66485;52.128;4.436;2023-05-19T03:41:14;102823.38;;;20.60
31921;BMP280;66485;52.128;4.436;2023-05-19T03:43:39;102816.78;;;20.61
31921;BMP280;66485;52.128;4.436;2023-05-19T03:46:05;102825.31;;;20.63
31921;BMP280;66485;52.128;4.436;2023-05-19T03:48:30;102826.50;;;20.62
31921;BMP280;66485;52.128;4.436;2023-05-19T03:50:55;102825.31;;;20.60
31921;BMP280;66485;52.128;4.436;2023-05-19T03:53:22;102820.28;;;20.65
31921;BMP280;66485;52.128;4.436;2023-05-19T03:55:47;102828.44;;;20.58
31921;BMP280;66485;52.128;4.436;2023-05-19T03:58:14;102828.44;;;20.58
31921;BMP280;66485;52.128;4.436;2023-05-19T04:00:40;102827.66;;;20.61
31921;BMP280;66485;52.128;4.436;2023-05-19T04:03:05;102834.28;;;20.64
31921;BMP280;66485;52.128;4.436;2023-05-19T04:05:32;102835.47;;;20.66
31921;BMP280;66485;52.128;4.436;2023-05-19T04:07:57;102830.38;;;20.65
31921;BMP280;66485;52.128;4.436;2023-05-19T04:10:22;102829.59;;;20.64
31921;BMP280;66485;52.128;4.436;2023-05-19T04:12:47;102827.66;;;20.65
31921;BMP280;66485;52.128;4.436;2023-05-19T04:15:13;102832.72;;;20.66
31921;BMP280;66485;52.128;4.436;2023-05-19T04:17:39;102837.41;;;20.62
31921;BMP280;66485;52.128;4.436;2023-05-19T04:20:04;102837.41;;;20.62
31921;BMP280;66485;52.128;4.436;2023-05-19T04:22:31;102837.00;;;20.67
31921;BMP280;66485;52.128;4.436;2023-05-19T04:24:56;102835.06;;;20.68
31921;BMP280;66485;52.128;4.436;2023-05-19T04:27:22;102839.72;;;20.67
31921;BMP280;66485;52.128;4.436;2023-05-19T04:29:48;102839.72;;;20.67
31921;BMP280;66485;52.128;4.436;2023-05-19T04:32:13;102840.50;;;20.68
31921;BMP280;66485;52.128;4.436;2023-05-19T04:34:42;102832.31;;;20.64
31921;BMP280;66485;52.128;4.436;2023-05-19T04:37:10;102825.75;;;20.69
31921;BMP280;66485;52.128;4.436;2023-05-19T04:39:36;102834.69;;;20.69
31921;BMP280;66485;52.128;4.436;2023-05-19T04:42:04;102834.69;;;20.69
31921;BMP280;66485;52.128;4.436;2023-05-19T04:44:29;102835.50;;;20.70
31921;BMP280;66485;52.128;4.436;2023-05-19T04:46:55;102842.09;;;20.69
31921;BMP280;66485;52.128;4.436;2023-05-19T04:49:21;102842.09;;;20.69
31921;BMP280;66485;52.128;4.436;2023-05-19T04:51:48;102837.44;;;20.69
31921;BMP280;66485;52.128;4.436;2023-05-19T04:54:15;102837.44;;;20.69
31921;BMP280;66485;52.128;4.436;2023-05-19T04:56:41;102836.66;;;20.69
31921;BMP280;66485;52.128;4.436;2023-05-19T04:59:07;102836.66;;;20.69
31921;BMP280;66485;52.128;4.436;2023-05-19T05:01:34;102841.66;;;20.67
31921;BMP280;66485;52.128;4.436;2023-05-19T05:04:04;102849.88;;;20.70
31921;BMP280;66485;52.128;4.436;2023-05-19T05:06:29;102848.31;;;20.69
31921;BMP280;66485;52.128;4.436;2023-05-19T05:08:55;102848.31;;;20.69
31921;BMP280;66485;52.128;4.436;2023-05-19T05:11:21;102845.16;;;20.67
31921;BMP280;66485;52.128;4.436;2023-05-19T05:13:47;102845.16;;;20.67
31921;BMP280;66485;52.128;4.436;2023-05-19T05:16:13;102845.59;;;20.69
31921;BMP280;66485;52.128;4.436;2023-05-19T05:18:41;102845.19;;;20.71
31921;BMP280;66485;52.128;4.436;2023-05-19T05:21:07;102845.19;;;20.71
31921;BMP280;66485;52.128;4.436;2023-05-19T05:23:33;102852.56;;;20.67
31921;BMP280;66485;52.128;4.436;2023-05-19T05:25:58;102850.66;;;20.71
31921;BMP280;66485;52.128;4.436;2023-05-19T05:28:25;102856.50;;;20.73
31921;BMP280;66485;52.128;4.436;2023-05-19T05:30:50;102854.16;;;20.71
31921;BMP280;66485;52.128;4.436;2023-05-19T05:33:15;102855.72;;;20.72
31921;BMP280;66485;52.128;4.436;2023-05-19T05:35:42;102855.34;;;20.74
31921;BMP280;66485;52.128;4.436;2023-05-19T05:38:07;102856.88;;;20.71
31921;BMP280;66485;52.128;4.436;2023-05-19T05:40:32;102847.16;;;20.70
31921;BMP280;66485;52.128;4.436;2023-05-19T05:42:58;102844.81;;;20.72
31921;BMP280;66485;52.128;4.436;2023-05-19T05:45:24;102844.81;;;20.72
31921;BMP280;66485;52.128;4.436;2023-05-19T05:47:50;102845.94;;;20.64
31921;BMP280;66485;52.128;4.436;2023-05-19T05:50:16;102845.16;;;20.67
31921;BMP280;66485;52.128;4.436;2023-05-19T05:52:45;102849.47;;;20.68
31921;BMP280;66485;52.128;4.436;2023-05-19T05:55:11;102856.09;;;20.71
31921;BMP280;66485;52.128;4.436;2023-05-19T05:57:37;102853.34;;;20.67
31921;BMP280;66485;52.128;4.436;2023-05-19T06:00:03;102853.34;;;20.67
31921;BMP280;66485;52.128;4.436;2023-05-19T06:02:34;102847.09;;;20.60
31921;BMP280;66485;52.128;4.436;2023-05-19T06:05:00;102843.19;;;20.57
31921;BMP280;66485;52.128;4.436;2023-05-19T06:07:26;102838.19;;;20.66
31921;BMP280;66485;52.128;4.436;2023-05-19T06:09:51;102845.56;;;20.66
31921;BMP280;66485;52.128;4.436;2023-05-19T06:12:17;102847.88;;;20.67
31921;BMP280;66485;52.128;4.436;2023-05-19T06:14:42;102846.75;;;20.68
31921;BMP280;66485;52.128;4.436;2023-05-19T06:17:07;102844.81;;;20.69
31921;BMP280;66485;52.128;4.436;2023-05-19T06:19:33;102844.81;;;20.69
31921;BMP280;66485;52.128;4.436;2023-05-19T06:21:58;102847.09;;;20.67
31921;BMP280;66485;52.128;4.436;2023-05-19T06:24:23;102847.09;;;20.67
31921;BMP280;66485;52.128;4.436;2023-05-19T06:26:49;102842.06;;;20.62
31921;BMP280;66485;52.128;4.436;2023-05-19T06:29:14;102850.63;;;20.67
31921;BMP280;66485;52.128;4.436;2023-05-19T06:31:39;102854.94;;;20.68
31921;BMP280;66485;52.128;4.436;2023-05-19T06:34:05;102854.94;;;20.68
31921;BMP280;66485;52.128;4.436;2023-05-19T06:36:30;102852.97;;;20.65
31921;BMP280;66485;52.128;4.436;2023-05-19T06:38:56;102855.28;;;20.67
31921;BMP280;66485;52.128;4.436;2023-05-19T06:41:21;102855.28;;;20.67
31921;BMP280;66485;52.128;4.436;2023-05-19T06:43:47;102860.72;;;20.67
31921;BMP280;66485;52.128;4.436;2023-05-19T06:46:12;102850.63;;;20.67
31921;BMP280;66485;52.128;4.436;2023-05-19T06:48:37;102852.19;;;20.68
31921;BMP280;66485;52.128;4.436;2023-05-19T06:51:03;102853.00;;;20.69
31921;BMP280;66485;52.128;4.436;2023-05-19T06:53:29;102847.88;;;20.67
31921;BMP280;66485;52.128;4.436;2023-05-19T06:55:54;102852.22;;;20.72
31921;BMP280;66485;52.128;4.436;2023-05-19T06:58:20;102854.16;;;20.71
31921;BMP280;66485;52.128;4.436;2023-05-19T07:00:45;102854.16;;;20.71
31921;BMP280;66485;52.128;4.436;2023-05-19T07:03:10;102847.91;;;20.71
31921;BMP280;66485;52.128;4.436;2023-05-19T07:05:36;102853.78;;;20.69
31921;BMP280;66485;52.128;4.436;2023-05-19T07:08:01;102853.78;;;20.73
31921;BMP280;66485;52.128;4.436;2023-05-19T07:10:27;102853.78;;;20.73
31921;BMP280;66485;52.128;4.436;2023-05-19T07:12:52;102850.66;;;20.74
31921;BMP280;66485;52.128;4.436;2023-05-19T07:15:17;102847.53;;;20.72
31921;BMP280;66485;52.128;4.436;2023-05-19T07:17:43;102850.28;;;20.76
31921;BMP280;66485;52.128;4.436;2023-05-19T07:20:08;102850.66;;;20.78
31921;BMP280;66485;52.128;4.436;2023-05-19T07:22:34;102847.94;;;20.78
31921;BMP280;66485;52.128;4.436;2023-05-19T07:25:00;102846.00;;;20.78
31921;BMP280;66485;52.128;4.436;2023-05-19T07:27:25;102846.41;;;20.80
31921;BMP280;66485;52.128;4.436;2023-05-19T07:29:50;102847.56;;;20.79
31921;BMP280;66485;52.128;4.436;2023-05-19T07:32:16;102847.56;;;20.79
31921;BMP280;66485;52.128;4.436;2023-05-19T07:34:41;102839.81;;;20.85
31921;BMP280;66485;52.128;4.436;2023-05-19T07:37:06;102842.53;;;20.81
31921;BMP280;66485;52.128;4.436;2023-05-19T07:39:33;102842.53;;;20.81
31921;BMP280;66485;52.128;4.436;2023-05-19T07:41:58;102840.59;;;20.82
31921;BMP280;66485;52.128;4.436;2023-05-19T07:44:24;102841.75;;;20.88
31921;BMP280;66485;52.128;4.436;2023-05-19T07:46:51;102841.75;;;20.88
31921;BMP280;66485;52.128;4.436;2023-05-19T07:49:16;102835.13;;;20.89
31921;BMP280;66485;52.128;4.436;2023-05-19T07:51:41;102838.31;;;20.91
31921;BMP280;66485;52.128;4.436;2023-05-19T07:54:07;102848.41;;;20.98
31921;BMP280;66485;52.128;4.436;2023-05-19T07:56:32;102838.31;;;21.02
31921;BMP280;66485;52.128;4.436;2023-05-19T07:58:58;102838.31;;;21.02
31921;BMP280;66485;52.128;4.436;2023-05-19T08:01:23;102839.09;;;21.02
31921;BMP280;66485;52.128;4.436;2023-05-19T08:03:49;102839.09;;;21.02
31921;BMP280;66485;52.128;4.436;2023-05-19T08:06:14;102837.53;;;21.01
31921;BMP280;66485;52.128;4.436;2023-05-19T08:08:39;102829.72;;;21.00
31921;BMP280;66485;52.128;4.436;2023-05-19T08:11:06;102836.75;;;21.01
31921;BMP280;66485;52.128;4.436;2023-05-19T08:13:31;102830.50;;;21.00
31921;BMP280;66485;52.128;4.436;2023-05-19T08:15:57;102830.16;;;21.02
31921;BMP280;66485;52.128;4.436;2023-05-19T08:18:24;102830.94;;;21.02
31921;BMP280;66485;52.128;4.436;2023-05-19T08:20:50;102833.28;;;21.04
31921;BMP280;66485;52.128;4.436;2023-05-19T08:23:15;102827.81;;;21.04
31921;BMP280;66485;52.128;4.436;2023-05-19T08:25:42;102834.44;;;21.06
31921;BMP280;66485;52.128;4.436;2023-05-19T08:28:07;102826.25;;;21.06
31921;BMP280;66485;52.128;4.436;2023-05-19T08:30:32;102825.09;;;21.07
31921;BMP280;66485;52.128;4.436;2023-05-19T08:32:58;102821.97;;;21.09
31921;BMP280;66485;52.128;4.436;2023-05-19T08:35:23;102820.78;;;21.10
31921;BMP280;66485;52.128;4.436;2023-05-19T08:37:49;102819.63;;;21.11
31921;BMP280;66485;52.128;4.436;2023-05-19T08:40:16;102809.53;;;21.11
31921;BMP280;66485;52.128;4.436;2023-05-19T08:42:43;102809.53;;;21.11
31921;BMP280;66485;52.128;4.436;2023-05-19T08:45:09;102801.75;;;21.13
31921;BMP280;66485;52.128;4.436;2023-05-19T08:47:35;102804.47;;;21.13
31921;BMP280;66485;52.128;4.436;2023-05-19T08:50:03;102804.47;;;21.13
31921;BMP280;66485;52.128;4.436;2023-05-19T08:52:41;102799.41;;;21.15
31921;BMP280;66485;52.128;4.436;2023-05-19T08:58:03;102796.28;;;21.20
31921;BMP280;66485;52.128;4.436;2023-05-19T09:00:29;102799.00;;;21.20
31921;BMP280;66485;52.128;4.436;2023-05-19T09:02:54;102796.69;;;21.19
31921;BMP280;66485;52.128;4.436;2023-05-19T09:05:21;102794.34;;;21.21
31921;BMP280;66485;52.128;4.436;2023-05-19T09:07:47;102787.72;;;21.22
31921;BMP280;66485;52.128;4.436;2023-05-19T09:10:13;102791.25;;;21.22
31921;BMP280;66485;52.128;4.436;2023-05-19T09:12:44;102798.28;;;21.23
31921;BMP280;66485;52.128;4.436;2023-05-19T09:15:11;102799.03;;;21.27
31921;BMP280;66485;52.128;4.436;2023-05-19T09:17:37;102783.47;;;21.35
31921;BMP280;66485;52.128;4.436;2023-05-19T09:20:04;102791.66;;;21.35
31921;BMP280;66485;52.128;4.436;2023-05-19T09:22:39;102789.28;;;21.37
31921;BMP280;66485;52.128;4.436;2023-05-19T09:25:06;102796.31;;;21.42
31921;BMP280;66485;52.128;4.436;2023-05-19T09:27:41;102786.56;;;21.41
31921;BMP280;66485;52.128;4.436;2023-05-19T09:30:07;102794.78;;;21.44
31921;BMP280;66485;52.128;4.436;2023-05-19T09:32:34;102798.66;;;21.47
31921;BMP280;66485;52.128;4.436;2023-05-19T09:35:01;102801.78;;;21.45
31921;BMP280;66485;52.128;4.436;2023-05-19T09:37:27;102794.38;;;21.46
31921;BMP280;66485;52.128;4.436;2023-05-19T09:39:54;102801.38;;;21.47
31921;BMP280;66485;52.128;4.436;2023-05-19T09:42:26;102784.66;;;21.48
31921;BMP280;66485;52.128;4.436;2023-05-19T09:45:00;102785.00;;;21.54
31921;BMP280;66485;52.128;4.436;2023-05-19T09:47:26;102785.00;;;21.54
31921;BMP280;66485;52.128;4.436;2023-05-19T09:49:52;102784.66;;;21.55
31921;BMP280;66485;52.128;4.436;2023-05-19T09:52:18;102795.16;;;21.57
31921;BMP280;66485;52.128;4.436;2023-05-19T09:54:43;102784.66;;;21.55
31921;BMP280;66485;52.128;4.436;2023-05-19T09:57:09;102791.22;;;21.54
31921;BMP280;66485;52.128;4.436;2023-05-19T09:59:34;102783.47;;;21.56
31921;BMP280;66485;52.128;4.436;2023-05-19T10:02:03;102789.31;;;21.58
31921;BMP280;66485;52.128;4.436;2023-05-19T10:04:30;102776.03;;;21.60
31921;BMP280;66485;52.128;4.436;2023-05-19T10:06:57;102777.22;;;21.63
31921;BMP280;66485;52.128;4.436;2023-05-19T10:09:27;102783.47;;;21.67
31921;BMP280;66485;52.128;4.436;2023-05-19T10:11:54;102781.53;;;21.67
31921;BMP280;66485;52.128;4.436;2023-05-19T10:14:27;102783.06;;;21.68
31921;BMP280;66485;52.128;4.436;2023-05-19T10:16:55;102784.63;;;21.69
31921;BMP280;66485;52.128;4.436;2023-05-19T10:19:22;102784.63;;;21.69
31921;BMP280;66485;52.128;4.436;2023-05-19T10:21:48;102778.00;;;21.67
31921;BMP280;66485;52.128;4.436;2023-05-19T10:24:13;102779.16;;;21.69
31921;BMP280;66485;52.128;4.436;2023-05-19T10:26:43;102776.81;;;21.72
31921;BMP280;66485;52.128;4.436;2023-05-19T10:29:10;102781.09;;;21.73
31921;BMP280;66485;52.128;4.436;2023-05-19T10:31:37;102770.22;;;21.76
31921;BMP280;66485;52.128;4.436;2023-05-19T10:37:12;102767.06;;;21.78
31921;BMP280;66485;52.128;4.436;2023-05-19T10:39:42;102768.25;;;21.87
31921;BMP280;66485;52.128;4.436;2023-05-19T10:42:15;102768.22;;;21.91
31921;BMP280;66485;52.128;4.436;2023-05-19T10:44:57;102761.97;;;21.94
31921;BMP280;66485;52.128;4.436;2023-05-19T10:47:24;102765.84;;;21.96
31921;BMP280;66485;52.128;4.436;2023-05-19T10:49:53;102763.16;;;22.00
31921;BMP280;66485;52.128;4.436;2023-05-19T10:52:21;102756.50;;;22.01
31921;BMP280;66485;52.128;4.436;2023-05-19T10:54:47;102762.69;;;22.05
31921;BMP280;66485;52.128;4.436;2023-05-19T10:57:20;102752.56;;;22.05
31921;BMP280;66485;52.128;4.436;2023-05-19T10:59:49;102752.97;;;22.07
31921;BMP280;66485;52.128;4.436;2023-05-19T11:05:12;102751.00;;;22.15
31921;BMP280;66485;52.128;4.436;2023-05-19T11:07:42;102754.88;;;22.18
31921;BMP280;66485;52.128;4.436;2023-05-19T11:10:11;102749.41;;;22.21
31921;BMP280;66485;52.128;4.436;2023-05-19T11:12:44;102757.97;;;22.27
31921;BMP280;66485;52.128;4.436;2023-05-19T11:15:13;102761.06;;;22.32
31921;BMP280;66485;52.128;4.436;2023-05-19T11:17:39;102761.06;;;22.32
31921;BMP280;66485;52.128;4.436;2023-05-19T11:20:08;102752.88;;;22.29
31921;BMP280;66485;52.128;4.436;2023-05-19T11:23:00;102755.19;;;22.41
31921;BMP280;66485;52.128;4.436;2023-05-19T11:28:10;102750.81;;;22.47
31921;BMP280;66485;52.128;4.436;2023-05-19T11:30:42;102750.81;;;22.47
31921;BMP280;66485;52.128;4.436;2023-05-19T11:33:09;102746.94;;;22.48
31921;BMP280;66485;52.128;4.436;2023-05-19T11:35:34;102746.94;;;22.48
31921;BMP280;66485;52.128;4.436;2023-05-19T11:38:01;102743.38;;;22.51
31921;BMP280;66485;52.128;4.436;2023-05-19T11:40:28;102743.38;;;22.51
31921;BMP280;66485;52.128;4.436;2023-05-19T11:42:53;102743.38;;;22.55
31921;BMP280;66485;52.128;4.436;2023-05-19T11:45:25;102743.38;;;22.55
31921;BMP280;66485;52.128;4.436;2023-05-19T11:47:54;102732.81;;;22.60
31921;BMP280;66485;52.128;4.436;2023-05-19T11:50:20;102741.31;;;22.76
31921;BMP280;66485;52.128;4.436;2023-05-19T11:52:46;102741.31;;;22.76
31921;BMP280;66485;52.128;4.436;2023-05-19T11:55:15;102740.53;;;22.76
31921;BMP280;66485;52.128;4.436;2023-05-19T11:57:41;102736.56;;;22.84
31921;BMP280;66485;52.128;4.436;2023-05-19T12:00:14;102737.72;;;22.86
31921;BMP280;66485;52.128;4.436;2023-05-19T12:02:40;102736.09;;;22.92
31921;BMP280;66485;52.128;4.436;2023-05-19T12:05:05;102736.09;;;22.92
31921;BMP280;66485;52.128;4.436;2023-05-19T12:07:31;102729.44;;;22.93
31921;BMP280;66485;52.128;4.436;2023-05-19T12:09:58;102722.78;;;22.98
31921;BMP280;66485;52.128;4.436;2023-05-19T12:12:23;102729.78;;;23.03
31921;BMP280;66485;52.128;4.436;2023-05-19T12:14:50;102725.09;;;23.03
31921;BMP280;66485;52.128;4.436;2023-05-19T12:17:17;102722.38;;;23.00
31921;BMP280;66485;52.128;4.436;2023-05-19T12:19:45;102722.38;;;23.00
31921;BMP280;66485;52.128;4.436;2023-05-19T12:22:11;102723.97;;;22.97
31921;BMP280;66485;52.128;4.436;2023-05-19T12:24:37;102711.88;;;22.98
31921;BMP280;66485;52.128;4.436;2023-05-19T12:27:10;102711.88;;;22.98
31921;BMP280;66485;52.128;4.436;2023-05-19T12:29:38;102710.31;;;22.97
31921;BMP280;66485;52.128;4.436;2023-05-19T12:32:06;102716.84;;;23.10
31921;BMP280;66485;52.128;4.436;2023-05-19T12:34:34;102716.84;;;23.10
31921;BMP280;66485;52.128;4.436;2023-05-19T12:37:01;102709.78;;;23.13
31921;BMP280;66485;52.128;4.436;2023-05-19T12:39:27;102707.38;;;23.18
31921;BMP280;66485;52.128;4.436;2023-05-19T12:42:00;102706.94;;;23.23
31921;BMP280;66485;52.128;4.436;2023-05-19T12:44:26;102706.94;;;23.23
31921;BMP280;66485;52.128;4.436;2023-05-19T12:46:52;102697.78;;;23.41
31921;BMP280;66485;52.128;4.436;2023-05-19T12:49:17;102700.91;;;23.43
31921;BMP280;66485;52.128;4.436;2023-05-19T12:51:50;102700.06;;;23.46
31921;BMP280;66485;52.128;4.436;2023-05-19T12:54:21;102701.56;;;23.54
31921;BMP280;66485;52.128;4.436;2023-05-19T12:56:50;102695.66;;;23.55
31921;BMP280;66485;52.128;4.436;2023-05-19T12:59:21;102698.34;;;23.59
31921;BMP280;66485;52.128;4.436;2023-05-19T13:01:54;102688.16;;;23.63
31921;BMP280;66485;52.128;4.436;2023-05-19T13:04:20;102683.41;;;23.67
31921;BMP280;66485;52.128;4.436;2023-05-19T13:06:45;102682.59;;;23.70
31921;BMP280;66485;52.128;4.436;2023-05-19T13:09:13;102684.53;;;23.73
31921;BMP280;66485;52.128;4.436;2023-05-19T13:11:39;102682.88;;;23.79
31921;BMP280;66485;52.128;4.436;2023-05-19T13:14:04;102682.88;;;23.79
31921;BMP280;66485;52.128;4.436;2023-05-19T13:16:30;102670.72;;;23.84
31921;BMP280;66485;52.128;4.436;2023-05-19T13:18:55;102675.81;;;23.82
31921;BMP280;66485;52.128;4.436;2023-05-19T13:21:21;102681.69;;;23.84
31921;BMP280;66485;52.128;4.436;2023-05-19T13:23:46;102677.66;;;23.88
31921;BMP280;66485;52.128;4.436;2023-05-19T13:26:11;102668.66;;;23.91
31921;BMP280;66485;52.128;4.436;2023-05-19T13:28:37;102675.56;;;23.99
31921;BMP280;66485;52.128;4.436;2023-05-19T13:31:03;102677.47;;;24.02
31921;BMP280;66485;52.128;4.436;2023-05-19T13:33:28;102677.47;;;24.02
31921;BMP280;66485;52.128;4.436;2023-05-19T13:35:53;102673.91;;;24.09
31921;BMP280;66485;52.128;4.436;2023-05-19T13:38:19;102669.88;;;24.13
31921;BMP280;66485;52.128;4.436;2023-05-19T13:40:44;102669.88;;;24.13
31921;BMP280;66485;52.128;4.436;2023-05-19T13:43:10;102671.00;;;24.19
31921;BMP280;66485;52.128;4.436;2023-05-19T13:45:36;102665.88;;;24.22
31921;BMP280;66485;52.128;4.436;2023-05-19T13:48:01;102658.41;;;24.26
31921;BMP280;66485;52.128;4.436;2023-05-19T13:50:27;102658.41;;;24.26
31921;BMP280;66485;52.128;4.436;2023-05-19T13:52:52;102668.47;;;24.32
31921;BMP280;66485;52.128;4.436;2023-05-19T13:55:18;102668.47;;;24.32
31921;BMP280;66485;52.128;4.436;2023-05-19T13:57:43;102662.88;;;24.39
31921;BMP280;66485;52.128;4.436;2023-05-19T14:00:09;102655.00;;;24.41
31921;BMP280;66485;52.128;4.436;2023-05-19T14:02:34;102655.00;;;24.41
31921;BMP280;66485;52.128;4.436;2023-05-19T14:05:02;102651.84;;;24.43
31921;BMP280;66485;52.128;4.436;2023-05-19T14:07:27;102657.31;;;24.46
31921;BMP280;66485;52.128;4.436;2023-05-19T14:09:53;102657.31;;;24.46
31921;BMP280;66485;52.128;4.436;2023-05-19T14:12:19;102655.00;;;24.41
31921;BMP280;66485;52.128;4.436;2023-05-19T14:14:44;102656.13;;;24.47
31921;BMP280;66485;52.128;4.436;2023-05-19T14:17:12;102647.31;;;24.56